createdAt,value
2017-04-28T00:00:27.529Z,1008.68
2017-04-28T00:01:27.505Z,1008.64
2017-04-28T00:02:27.478Z,1008.66
2017-04-28T00:03:27.452Z,1008.63
2017-04-28T00:04:27.432Z,1008.66
2017-04-28T00:05:27.401Z,1008.63
2017-04-28T00:06:27.378Z,1008.64
2017-04-28T00:07:27.352Z,1008.66
2017-04-28T00:08:27.329Z,1008.63
2017-04-28T00:09:27.304Z,1008.65
2017-04-28T00:10:27.280Z,1008.67
2017-04-28T00:11:27.256Z,1008.7
2017-04-28T00:12:27.227Z,1008.71
2017-04-28T00:13:27.204Z,1008.68
2017-04-28T00:14:27.178Z,1008.67
2017-04-28T00:15:27.154Z,1008.69
2017-04-28T00:16:27.127Z,1008.66
2017-04-28T00:17:27.103Z,1008.65
2017-04-28T00:18:27.079Z,1008.65
2017-04-28T00:19:27.055Z,1008.65
2017-04-28T00:20:27.030Z,1008.62
2017-04-28T00:21:27.003Z,1008.61
2017-04-28T00:22:26.974Z,1008.6
2017-04-28T00:23:26.953Z,1008.56
2017-04-28T00:24:26.928Z,1008.54
2017-04-28T00:25:26.902Z,1008.55
2017-04-28T00:26:26.875Z,1008.55
2017-04-28T00:27:26.852Z,1008.51
2017-04-28T00:28:26.823Z,1008.55
2017-04-28T00:29:26.804Z,1008.51
2017-04-28T00:30:26.776Z,1008.48
2017-04-28T00:31:26.752Z,1008.48
2017-04-28T00:32:26.726Z,1008.51
2017-04-28T00:33:26.700Z,1008.47
2017-04-28T00:34:26.675Z,1008.42
2017-04-28T00:35:26.654Z,1008.41
2017-04-28T00:36:26.624Z,1008.4
2017-04-28T00:37:26.600Z,1008.43
2017-04-28T00:38:26.574Z,1008.41
2017-04-28T00:39:26.549Z,1008.4
2017-04-28T00:40:26.528Z,1008.4
2017-04-28T00:41:26.498Z,1008.37
2017-04-28T00:42:26.473Z,1008.39
2017-04-28T00:43:26.448Z,1008.39
2017-04-28T00:44:26.423Z,1008.43
2017-04-28T00:45:26.401Z,1008.37
2017-04-28T00:46:26.375Z,1008.4
2017-04-28T00:47:26.349Z,1008.43
2017-04-28T00:48:26.321Z,1008.42
2017-04-28T00:49:26.293Z,1008.4
2017-04-28T00:50:26.271Z,1008.4
2017-04-28T00:51:26.246Z,1008.4
2017-04-28T00:52:26.220Z,1008.47
2017-04-28T00:53:26.196Z,1008.43
2017-04-28T00:54:26.171Z,1008.39
2017-04-28T00:55:26.145Z,1008.41
2017-04-28T00:56:26.119Z,1008.41
2017-04-28T00:57:26.100Z,1008.43
2017-04-28T00:58:26.070Z,1008.36
2017-04-28T00:59:26.046Z,1008.38
2017-04-28T01:00:26.022Z,1008.35
2017-04-28T01:01:26.004Z,1008.37
2017-04-28T01:02:25.969Z,1008.34
2017-04-28T01:03:25.944Z,1008.35
2017-04-28T01:04:25.925Z,1008.29
2017-04-28T01:05:25.892Z,1008.31
2017-04-28T01:06:25.868Z,1008.33
2017-04-28T01:07:25.846Z,1008.23
2017-04-28T01:08:25.825Z,1008.3
2017-04-28T01:09:25.791Z,1008.29
2017-04-28T01:10:25.768Z,1008.27
2017-04-28T01:11:25.742Z,1008.26
2017-04-28T01:12:25.724Z,1008.24
2017-04-28T01:13:25.692Z,1008.21
2017-04-28T01:14:25.665Z,1008.2
2017-04-28T01:15:25.891Z,1008.23
2017-04-28T01:16:25.618Z,1008.23
2017-04-28T01:17:25.590Z,1008.19
2017-04-28T01:18:25.566Z,1008.22
2017-04-28T01:19:25.541Z,1008.21
2017-04-28T01:20:25.515Z,1008.24
2017-04-28T01:21:25.490Z,1008.23
2017-04-28T01:22:25.468Z,1008.24
2017-04-28T01:23:25.442Z,1008.22
2017-04-28T01:24:25.411Z,1008.24
2017-04-28T01:25:25.387Z,1008.2
2017-04-28T01:26:25.362Z,1008.21
2017-04-28T01:27:25.336Z,1008.18
2017-04-28T01:28:25.362Z,1008.19
2017-04-28T01:29:25.287Z,1008.16
2017-04-28T01:30:25.264Z,1008.16
2017-04-28T01:31:25.238Z,1008.18
2017-04-28T01:32:25.211Z,1008.17
2017-04-28T01:33:25.184Z,1008.14
2017-04-28T01:34:25.161Z,1008.16
2017-04-28T01:35:25.132Z,1008.11
2017-04-28T01:36:25.108Z,1008.13
2017-04-28T01:37:25.083Z,1008.1
2017-04-28T01:38:25.058Z,1008.1
2017-04-28T01:39:25.032Z,1008.08
2017-04-28T01:40:25.007Z,1008.08
2017-04-28T01:41:24.982Z,1008.05
2017-04-28T01:42:24.956Z,1008
2017-04-28T01:43:24.929Z,1008.06
2017-04-28T01:44:24.910Z,1008.03
2017-04-28T01:45:24.879Z,1008.04
2017-04-28T01:46:24.857Z,1008.03
2017-04-28T01:47:24.828Z,1008.03
2017-04-28T01:48:24.809Z,1007.96
2017-04-28T01:49:24.795Z,1007.94
2017-04-28T01:50:24.749Z,1007.95
2017-04-28T01:51:24.728Z,1007.94
2017-04-28T01:52:24.700Z,1007.89
2017-04-28T01:53:24.675Z,1007.96
2017-04-28T01:54:24.650Z,1007.91
2017-04-28T01:55:24.625Z,1007.89
2017-04-28T01:56:24.602Z,1007.86
2017-04-28T01:57:24.572Z,1007.9
2017-04-28T01:58:24.547Z,1007.9
2017-04-28T01:59:24.530Z,1007.88
2017-04-28T02:00:24.498Z,1007.84
2017-04-28T02:01:24.471Z,1007.86
2017-04-28T02:02:24.446Z,1007.82
2017-04-28T02:03:24.421Z,1007.81
2017-04-28T02:04:24.446Z,1007.83
2017-04-28T02:05:24.367Z,1007.8
2017-04-28T02:06:24.341Z,1007.82
2017-04-28T02:07:24.318Z,1007.81
2017-04-28T02:08:24.293Z,1007.8
2017-04-28T02:09:24.269Z,1007.78
2017-04-28T02:10:24.243Z,1007.79
2017-04-28T02:11:24.213Z,1007.78
2017-04-28T02:12:24.190Z,1007.8
2017-04-28T02:13:24.165Z,1007.74
2017-04-28T02:14:24.140Z,1007.76
2017-04-28T02:15:24.113Z,1007.74
2017-04-28T02:16:24.094Z,1007.77
2017-04-28T02:17:24.066Z,1007.72
2017-04-28T02:18:24.038Z,1007.68
2017-04-28T02:19:24.012Z,1007.69
2017-04-28T02:20:23.989Z,1007.72
2017-04-28T02:21:23.959Z,1007.65
2017-04-28T02:22:23.935Z,1007.64
2017-04-28T02:23:23.908Z,1007.62
2017-04-28T02:24:23.884Z,1007.65
2017-04-28T02:25:23.857Z,1007.63
2017-04-28T02:26:23.831Z,1007.61
2017-04-28T02:27:23.806Z,1007.6
2017-04-28T02:28:23.831Z,1007.62
2017-04-28T02:29:23.758Z,1007.58
2017-04-28T02:30:23.732Z,1007.59
2017-04-28T02:31:23.703Z,1007.58
2017-04-28T02:32:23.677Z,1007.58
2017-04-28T02:33:23.654Z,1007.57
2017-04-28T02:34:23.625Z,1007.58
2017-04-28T02:35:23.602Z,1007.53
2017-04-28T02:36:23.573Z,1007.56
2017-04-28T02:37:23.549Z,1007.53
2017-04-28T02:38:23.524Z,1007.47
2017-04-28T02:39:23.497Z,1007.48
2017-04-28T02:40:23.472Z,1007.51
2017-04-28T02:41:23.445Z,1007.42
2017-04-28T02:42:23.423Z,1007.45
2017-04-28T02:43:23.395Z,1007.43
2017-04-28T02:44:23.369Z,1007.44
2017-04-28T02:45:23.399Z,1007.44
2017-04-28T02:46:23.323Z,1007.42
2017-04-28T02:47:23.293Z,1007.47
2017-04-28T02:48:23.266Z,1007.46
2017-04-28T02:49:23.291Z,1007.44
2017-04-28T02:50:23.216Z,1007.43
2017-04-28T02:51:23.190Z,1007.44
2017-04-28T02:52:23.164Z,1007.46
2017-04-28T02:53:23.139Z,1007.45
2017-04-28T02:54:23.115Z,1007.45
2017-04-28T02:55:23.088Z,1007.42
2017-04-28T02:56:23.061Z,1007.4
2017-04-28T02:57:23.041Z,1007.44
2017-04-28T02:58:23.018Z,1007.44
2017-04-28T02:59:22.987Z,1007.45
2017-04-28T03:00:22.957Z,1007.4
2017-04-28T03:01:22.932Z,1007.44
2017-04-28T03:02:22.907Z,1007.42
2017-04-28T03:03:22.878Z,1007.42
2017-04-28T03:04:22.855Z,1007.38
2017-04-28T03:05:22.829Z,1007.42
2017-04-28T03:06:22.805Z,1007.43
2017-04-28T03:07:22.777Z,1007.45
2017-04-28T03:08:22.753Z,1007.42
2017-04-28T03:09:22.726Z,1007.43
2017-04-28T03:10:22.701Z,1007.46
2017-04-28T03:11:22.674Z,1007.46
2017-04-28T03:12:22.651Z,1007.5
2017-04-28T03:13:22.622Z,1007.44
2017-04-28T03:14:22.595Z,1007.41
2017-04-28T03:15:22.571Z,1007.43
2017-04-28T03:16:22.546Z,1007.45
2017-04-28T03:17:22.518Z,1007.42
2017-04-28T03:18:22.493Z,1007.41
2017-04-28T03:19:22.468Z,1007.39
2017-04-28T03:20:22.448Z,1007.35
2017-04-28T03:21:22.415Z,1007.37
2017-04-28T03:22:22.391Z,1007.31
2017-04-28T03:23:22.366Z,1007.33
2017-04-28T03:24:22.339Z,1007.32
2017-04-28T03:25:22.313Z,1007.32
2017-04-28T03:26:22.317Z,1007.36
2017-04-28T03:27:22.267Z,1007.32
2017-04-28T03:28:22.237Z,1007.34
2017-04-28T03:29:22.209Z,1007.31
2017-04-28T03:30:22.183Z,1007.4
2017-04-28T03:31:22.157Z,1007.37
2017-04-28T03:32:22.133Z,1007.38
2017-04-28T03:33:22.105Z,1007.39
2017-04-28T03:34:22.081Z,1007.39
2017-04-28T03:35:22.053Z,1007.4
2017-04-28T03:36:22.029Z,1007.39
2017-04-28T03:37:22.004Z,1007.38
2017-04-28T03:38:21.976Z,1007.38
2017-04-28T03:39:21.952Z,1007.39
2017-04-28T03:40:21.925Z,1007.44
2017-04-28T03:41:21.899Z,1007.42
2017-04-28T03:42:21.876Z,1007.37
2017-04-28T03:43:21.847Z,1007.39
2017-04-28T03:44:21.825Z,1007.37
2017-04-28T03:45:21.798Z,1007.37
2017-04-28T03:46:21.772Z,1007.4
2017-04-28T03:47:21.744Z,1007.4
2017-04-28T03:48:21.724Z,1007.39
2017-04-28T03:49:21.694Z,1007.39
2017-04-28T03:50:21.666Z,1007.38
2017-04-28T03:51:21.641Z,1007.36
2017-04-28T03:52:21.616Z,1007.41
2017-04-28T03:53:21.589Z,1007.42
2017-04-28T03:54:21.564Z,1007.4
2017-04-28T03:55:21.539Z,1007.44
2017-04-28T03:56:21.513Z,1007.45
2017-04-28T03:57:21.486Z,1007.46
2017-04-28T03:58:21.462Z,1007.46
2017-04-28T03:59:21.436Z,1007.46
2017-04-28T04:00:21.410Z,1007.47
2017-04-28T04:01:21.385Z,1007.48
2017-04-28T04:02:21.356Z,1007.45
2017-04-28T04:03:21.329Z,1007.46
2017-04-28T04:04:21.309Z,1007.47
2017-04-28T04:05:21.276Z,1007.41
2017-04-28T04:06:21.253Z,1007.39
2017-04-28T04:07:21.227Z,1007.44
2017-04-28T04:08:21.202Z,1007.4
2017-04-28T04:09:21.176Z,1007.44
2017-04-28T04:10:21.153Z,1007.38
2017-04-28T04:11:21.123Z,1007.41
2017-04-28T04:12:21.100Z,1007.4
2017-04-28T04:13:21.075Z,1007.4
2017-04-28T04:14:21.046Z,1007.36
2017-04-28T04:15:21.020Z,1007.33
2017-04-28T04:16:20.993Z,1007.34
2017-04-28T04:17:20.969Z,1007.38
2017-04-28T04:18:20.944Z,1007.33
2017-04-28T04:19:20.917Z,1007.34
2017-04-28T04:20:20.889Z,1007.37
2017-04-28T04:21:20.864Z,1007.43
2017-04-28T04:22:20.839Z,1007.44
2017-04-28T04:23:20.817Z,1007.45
2017-04-28T04:24:20.789Z,1007.45
2017-04-28T04:25:20.762Z,1007.45
2017-04-28T04:26:20.739Z,1007.39
2017-04-28T04:27:20.707Z,1007.42
2017-04-28T04:28:20.682Z,1007.43
2017-04-28T04:29:20.659Z,1007.46
2017-04-28T04:30:20.630Z,1007.44
2017-04-28T04:31:20.607Z,1007.43
2017-04-28T04:32:20.584Z,1007.48
2017-04-28T04:33:20.556Z,1007.4
2017-04-28T04:34:20.526Z,1007.43
2017-04-28T04:35:20.533Z,1007.42
2017-04-28T04:36:20.526Z,1007.42
2017-04-28T04:37:20.451Z,1007.45
2017-04-28T04:38:20.425Z,1007.5
2017-04-28T04:39:20.401Z,1007.47
2017-04-28T04:40:20.375Z,1007.49
2017-04-28T04:41:20.350Z,1007.46
2017-04-28T04:42:20.324Z,1007.46
2017-04-28T04:43:20.300Z,1007.46
2017-04-28T04:44:20.274Z,1007.46
2017-04-28T04:45:20.248Z,1007.44
2017-04-28T04:46:20.226Z,1007.41
2017-04-28T04:47:20.198Z,1007.37
2017-04-28T04:48:20.173Z,1007.44
2017-04-28T04:49:20.196Z,1007.4
2017-04-28T04:50:20.124Z,1007.41
2017-04-28T04:51:20.098Z,1007.39
2017-04-28T04:52:20.072Z,1007.41
2017-04-28T04:53:20.046Z,1007.45
2017-04-28T04:54:20.111Z,1007.43
2017-04-28T04:55:19.997Z,1007.4
2017-04-28T04:56:19.969Z,1007.41
2017-04-28T04:57:19.945Z,1007.43
2017-04-28T04:58:19.926Z,1007.45
2017-04-28T04:59:19.894Z,1007.43
2017-04-28T05:00:19.869Z,1007.46
2017-04-28T05:01:19.843Z,1007.45
2017-04-28T05:02:19.819Z,1007.41
2017-04-28T05:03:19.795Z,1007.42
2017-04-28T05:04:19.769Z,1007.41
2017-04-28T05:05:19.743Z,1007.38
2017-04-28T05:06:19.722Z,1007.48
2017-04-28T05:07:19.697Z,1007.42
2017-04-28T05:08:19.666Z,1007.43
2017-04-28T05:09:19.644Z,1007.44
2017-04-28T05:10:19.616Z,1007.43
2017-04-28T05:11:19.593Z,1007.42
2017-04-28T05:12:19.570Z,1007.45
2017-04-28T05:13:19.843Z,1007.46
2017-04-28T05:14:19.518Z,1007.43
2017-04-28T05:15:19.545Z,1007.36
2017-04-28T05:16:19.469Z,1007.4
2017-04-28T05:17:19.444Z,1007.36
2017-04-28T05:18:19.420Z,1007.39
2017-04-28T05:19:19.394Z,1007.38
2017-04-28T05:20:19.373Z,1007.33
2017-04-28T05:21:19.345Z,1007.41
2017-04-28T05:22:19.322Z,1007.36
2017-04-28T05:23:19.298Z,1007.42
2017-04-28T05:24:19.277Z,1007.39
2017-04-28T05:25:19.249Z,1007.41
2017-04-28T05:26:19.230Z,1007.38
2017-04-28T05:27:19.202Z,1007.35
2017-04-28T05:28:19.180Z,1007.39
2017-04-28T05:29:19.152Z,1007.37
2017-04-28T05:30:19.130Z,1007.33
2017-04-28T05:31:19.108Z,1007.38
2017-04-28T05:32:19.085Z,1007.37
2017-04-28T05:33:19.059Z,1007.38
2017-04-28T05:34:19.032Z,1007.4
2017-04-28T05:35:19.010Z,1007.39
2017-04-28T05:36:18.987Z,1007.39
2017-04-28T05:37:18.970Z,1007.36
2017-04-28T05:38:18.941Z,1007.37
2017-04-28T05:39:18.918Z,1007.34
2017-04-28T05:40:18.894Z,1007.36
2017-04-28T05:41:18.873Z,1007.39
2017-04-28T05:42:18.849Z,1007.35
2017-04-28T05:43:18.819Z,1007.39
2017-04-28T05:44:18.798Z,1007.39
2017-04-28T05:45:18.776Z,1007.4
2017-04-28T05:46:18.749Z,1007.38
2017-04-28T05:47:18.756Z,1007.41
2017-04-28T05:48:18.701Z,1007.37
2017-04-28T05:49:18.677Z,1007.45
2017-04-28T05:50:18.654Z,1007.36
2017-04-28T05:51:18.629Z,1007.38
2017-04-28T05:52:18.608Z,1007.4
2017-04-28T05:53:18.583Z,1007.41
2017-04-28T05:54:18.562Z,1007.41
2017-04-28T05:55:18.536Z,1007.41
2017-04-28T05:56:18.512Z,1007.41
2017-04-28T05:57:18.488Z,1007.4
2017-04-28T05:58:18.518Z,1007.39
2017-04-28T05:59:18.441Z,1007.38
2017-04-28T06:00:18.416Z,1007.4
2017-04-28T06:01:18.394Z,1007.4
2017-04-28T06:02:18.369Z,1007.37
2017-04-28T06:03:18.349Z,1007.42
2017-04-28T06:04:18.320Z,1007.39
2017-04-28T06:05:18.296Z,1007.43
2017-04-28T06:06:18.273Z,1007.43
2017-04-28T06:07:18.251Z,1007.42
2017-04-28T06:08:18.227Z,1007.43
2017-04-28T06:09:18.201Z,1007.44
2017-04-28T06:10:18.180Z,1007.41
2017-04-28T06:11:18.155Z,1007.4
2017-04-28T06:12:18.131Z,1007.41
2017-04-28T06:13:18.106Z,1007.41
2017-04-28T06:14:18.081Z,1007.42
2017-04-28T06:15:18.061Z,1007.43
2017-04-28T06:16:18.033Z,1007.44
2017-04-28T06:17:18.009Z,1007.46
2017-04-28T06:18:17.987Z,1007.41
2017-04-28T06:19:17.964Z,1007.39
2017-04-28T06:20:17.938Z,1007.45
2017-04-28T06:21:17.915Z,1007.45
2017-04-28T06:22:17.889Z,1007.45
2017-04-28T06:23:17.866Z,1007.45
2017-04-28T06:24:17.848Z,1007.46
2017-04-28T06:25:17.818Z,1007.44
2017-04-28T06:26:17.795Z,1007.44
2017-04-28T06:27:17.770Z,1007.41
2017-04-28T06:28:17.753Z,1007.48
2017-04-28T06:29:17.722Z,1007.42
2017-04-28T06:30:17.698Z,1007.44
2017-04-28T06:31:17.675Z,1007.38
2017-04-28T06:32:17.649Z,1007.46
2017-04-28T06:33:17.626Z,1007.43
2017-04-28T06:34:17.608Z,1007.38
2017-04-28T06:35:17.578Z,1007.36
2017-04-28T06:36:17.554Z,1007.4
2017-04-28T06:37:17.533Z,1007.36
2017-04-28T06:38:17.506Z,1007.38
2017-04-28T06:39:17.483Z,1007.38
2017-04-28T06:40:17.458Z,1007.39
2017-04-28T06:41:17.433Z,1007.43
2017-04-28T06:42:17.410Z,1007.43
2017-04-28T06:43:17.387Z,1007.47
2017-04-28T06:44:17.363Z,1007.49
2017-04-28T06:45:17.336Z,1007.47
2017-04-28T06:46:17.315Z,1007.51
2017-04-28T06:47:17.291Z,1007.47
2017-04-28T06:48:17.268Z,1007.52
2017-04-28T06:49:17.243Z,1007.49
2017-04-28T06:50:17.270Z,1007.51
2017-04-28T06:51:17.194Z,1007.5
2017-04-28T06:52:17.171Z,1007.44
2017-04-28T06:53:17.149Z,1007.5
2017-04-28T06:54:17.123Z,1007.48
2017-04-28T06:55:17.099Z,1007.44
2017-04-28T06:56:17.078Z,1007.48
2017-04-28T06:57:17.054Z,1007.48
2017-04-28T06:58:17.029Z,1007.44
2017-04-28T06:59:17.005Z,1007.48
2017-04-28T07:00:16.983Z,1007.49
2017-04-28T07:01:16.959Z,1007.5
2017-04-28T07:02:16.933Z,1007.48
2017-04-28T07:03:16.910Z,1007.54
2017-04-28T07:04:16.890Z,1007.56
2017-04-28T07:05:16.861Z,1007.53
2017-04-28T07:06:16.836Z,1007.55
2017-04-28T07:07:16.816Z,1007.52
2017-04-28T07:08:16.788Z,1007.55
2017-04-28T07:09:16.767Z,1007.54
2017-04-28T07:10:16.992Z,1007.51
2017-04-28T07:11:16.718Z,1007.52
2017-04-28T07:12:16.695Z,1007.47
2017-04-28T07:13:16.669Z,1007.54
2017-04-28T07:14:16.651Z,1007.53
2017-04-28T07:15:16.625Z,1007.51
2017-04-28T07:16:16.605Z,1007.5
2017-04-28T07:17:16.580Z,1007.52
2017-04-28T07:18:16.558Z,1007.48
2017-04-28T07:19:16.532Z,1007.51
2017-04-28T07:20:16.506Z,1007.49
2017-04-28T07:21:16.485Z,1007.49
2017-04-28T07:22:16.460Z,1007.5
2017-04-28T07:23:16.437Z,1007.5
2017-04-28T07:24:16.412Z,1007.51
2017-04-28T07:25:16.391Z,1007.49
2017-04-28T07:26:16.366Z,1007.5
2017-04-28T07:27:16.342Z,1007.49
2017-04-28T07:28:16.319Z,1007.47
2017-04-28T07:29:16.296Z,1007.5
2017-04-28T07:30:16.270Z,1007.57
2017-04-28T07:31:16.250Z,1007.52
2017-04-28T07:32:16.225Z,1007.47
2017-04-28T07:33:16.204Z,1007.59
2017-04-28T07:34:16.181Z,1007.53
2017-04-28T07:35:16.161Z,1007.54
2017-04-28T07:36:16.134Z,1007.51
2017-04-28T07:37:16.109Z,1007.49
2017-04-28T07:38:16.087Z,1007.48
2017-04-28T07:39:16.066Z,1007.44
2017-04-28T07:40:16.039Z,1007.42
2017-04-28T07:41:16.018Z,1007.43
2017-04-28T07:42:16.002Z,1007.41
2017-04-28T07:43:15.971Z,1007.4
2017-04-28T07:44:15.951Z,1007.42
2017-04-28T07:45:15.922Z,1007.44
2017-04-28T07:46:16.156Z,1007.46
2017-04-28T07:47:15.881Z,1007.48
2017-04-28T07:48:15.856Z,1007.44
2017-04-28T07:49:15.830Z,1007.44
2017-04-28T07:50:15.805Z,1007.47
2017-04-28T07:51:15.780Z,1007.45
2017-04-28T07:52:15.767Z,1007.45
2017-04-28T07:53:15.790Z,1007.42
2017-04-28T07:54:15.715Z,1007.44
2017-04-28T07:55:15.693Z,1007.43
2017-04-28T07:56:15.670Z,1007.43
2017-04-28T07:57:15.650Z,1007.46
2017-04-28T07:58:15.624Z,1007.47
2017-04-28T07:59:15.601Z,1007.47
2017-04-28T08:00:15.579Z,1007.49
2017-04-28T08:01:15.557Z,1007.48
2017-04-28T08:02:15.533Z,1007.47
2017-04-28T08:03:15.510Z,1007.49
2017-04-28T08:04:15.486Z,1007.5
2017-04-28T08:05:15.463Z,1007.49
2017-04-28T08:06:15.441Z,1007.43
2017-04-28T08:07:15.417Z,1007.48
2017-04-28T08:08:15.397Z,1007.48
2017-04-28T08:09:15.377Z,1007.44
2017-04-28T08:10:15.603Z,1007.49
2017-04-28T08:11:15.328Z,1007.48
2017-04-28T08:12:15.310Z,1007.5
2017-04-28T08:13:15.285Z,1007.5
2017-04-28T08:14:15.261Z,1007.45
2017-04-28T08:15:15.239Z,1007.53
2017-04-28T08:16:15.215Z,1007.49
2017-04-28T08:17:15.196Z,1007.5
2017-04-28T08:18:15.175Z,1007.46
2017-04-28T08:19:15.150Z,1007.5
2017-04-28T08:20:15.128Z,1007.51
2017-04-28T08:21:15.103Z,1007.49
2017-04-28T08:22:15.082Z,1007.51
2017-04-28T08:23:15.069Z,1007.52
2017-04-28T08:24:15.034Z,1007.49
2017-04-28T08:25:15.014Z,1007.53
2017-04-28T08:26:15.271Z,1007.55
2017-04-28T08:27:14.970Z,1007.51
2017-04-28T08:28:14.948Z,1007.51
2017-04-28T08:29:14.925Z,1007.54
2017-04-28T08:30:14.902Z,1007.54
2017-04-28T08:31:14.881Z,1007.5
2017-04-28T08:32:14.858Z,1007.55
2017-04-28T08:33:14.866Z,1007.53
2017-04-28T08:34:14.814Z,1007.53
2017-04-28T08:35:14.792Z,1007.55
2017-04-28T08:36:14.768Z,1007.53
2017-04-28T08:37:14.750Z,1007.53
2017-04-28T08:38:14.943Z,1007.51
2017-04-28T08:39:14.703Z,1007.55
2017-04-28T08:40:14.682Z,1007.56
2017-04-28T08:41:14.659Z,1007.55
2017-04-28T08:42:14.638Z,1007.58
2017-04-28T08:43:14.613Z,1007.58
2017-04-28T08:44:14.593Z,1007.61
2017-04-28T08:45:14.569Z,1007.54
2017-04-28T08:46:14.549Z,1007.59
2017-04-28T08:47:14.525Z,1007.57
2017-04-28T08:48:14.504Z,1007.59
2017-04-28T08:49:14.484Z,1007.52
2017-04-28T08:50:14.460Z,1007.55
2017-04-28T08:51:14.439Z,1007.58
2017-04-28T08:52:14.418Z,1007.56
2017-04-28T08:53:14.395Z,1007.57
2017-04-28T08:54:14.373Z,1007.63
2017-04-28T08:55:14.349Z,1007.54
2017-04-28T08:56:14.330Z,1007.56
2017-04-28T08:57:14.306Z,1007.62
2017-04-28T08:58:14.285Z,1007.59
2017-04-28T08:59:14.267Z,1007.59
2017-04-28T09:00:14.241Z,1007.62
2017-04-28T09:01:14.220Z,1007.62
2017-04-28T09:02:14.197Z,1007.66
2017-04-28T09:03:14.176Z,1007.63
2017-04-28T09:04:14.153Z,1007.6
2017-04-28T09:05:14.136Z,1007.57
2017-04-28T09:06:14.112Z,1007.53
2017-04-28T09:07:14.086Z,1007.63
2017-04-28T09:08:14.065Z,1007.65
2017-04-28T09:09:14.043Z,1007.65
2017-04-28T09:10:14.023Z,1007.7
2017-04-28T09:11:14.000Z,1007.62
2017-04-28T09:12:13.977Z,1007.62
2017-04-28T09:13:13.956Z,1007.66
2017-04-28T09:14:13.930Z,1007.63
2017-04-28T09:15:13.908Z,1007.65
2017-04-28T09:16:13.891Z,1007.59
2017-04-28T09:17:13.866Z,1007.6
2017-04-28T09:18:13.846Z,1007.59
2017-04-28T09:19:13.822Z,1007.64
2017-04-28T09:20:13.797Z,1007.65
2017-04-28T09:21:13.777Z,1007.59
2017-04-28T09:22:13.758Z,1007.62
2017-04-28T09:23:13.733Z,1007.62
2017-04-28T09:24:13.711Z,1007.6
2017-04-28T09:25:13.686Z,1007.64
2017-04-28T09:26:13.665Z,1007.61
2017-04-28T09:27:13.647Z,1007.62
2017-04-28T09:28:13.620Z,1007.65
2017-04-28T09:29:13.596Z,1007.58
2017-04-28T09:30:13.574Z,1007.65
2017-04-28T09:31:13.554Z,1007.6
2017-04-28T09:32:13.531Z,1007.6
2017-04-28T09:33:13.509Z,1007.58
2017-04-28T09:34:13.488Z,1007.58
2017-04-28T09:35:13.465Z,1007.61
2017-04-28T09:36:13.444Z,1007.62
2017-04-28T09:37:13.419Z,1007.62
2017-04-28T09:38:13.395Z,1007.63
2017-04-28T09:39:13.375Z,1007.6
2017-04-28T09:40:13.352Z,1007.65
2017-04-28T09:41:13.329Z,1007.68
2017-04-28T09:42:13.309Z,1007.68
2017-04-28T09:43:13.286Z,1007.69
2017-04-28T09:44:13.264Z,1007.67
2017-04-28T09:45:13.240Z,1007.69
2017-04-28T09:46:13.219Z,1007.67
2017-04-28T09:47:13.199Z,1007.66
2017-04-28T09:48:13.173Z,1007.61
2017-04-28T09:49:13.153Z,1007.65
2017-04-28T09:50:13.178Z,1007.58
2017-04-28T09:51:13.109Z,1007.63
2017-04-28T09:52:13.081Z,1007.57
2017-04-28T09:53:13.060Z,1007.61
2017-04-28T09:54:13.036Z,1007.59
2017-04-28T09:55:13.017Z,1007.6
2017-04-28T09:56:12.993Z,1007.56
2017-04-28T09:57:12.969Z,1007.54
2017-04-28T09:58:12.947Z,1007.59
2017-04-28T09:59:12.925Z,1007.59
2017-04-28T10:00:12.902Z,1007.59
2017-04-28T10:01:12.878Z,1007.57
2017-04-28T10:02:12.857Z,1007.58
2017-04-28T10:03:12.838Z,1007.55
2017-04-28T10:04:12.862Z,1007.56
2017-04-28T10:05:12.789Z,1007.58
2017-04-28T10:06:12.766Z,1007.52
2017-04-28T10:07:12.743Z,1007.53
2017-04-28T10:08:12.721Z,1007.49
2017-04-28T10:09:12.699Z,1007.48
2017-04-28T10:10:12.676Z,1007.49
2017-04-28T10:11:12.651Z,1007.46
2017-04-28T10:12:12.635Z,1007.52
2017-04-28T10:13:12.606Z,1007.52
2017-04-28T10:14:12.584Z,1007.56
2017-04-28T10:15:12.563Z,1007.5
2017-04-28T10:16:12.541Z,1007.51
2017-04-28T10:17:12.517Z,1007.51
2017-04-28T10:18:12.497Z,1007.54
2017-04-28T10:19:12.473Z,1007.51
2017-04-28T10:20:12.450Z,1007.53
2017-04-28T10:21:12.428Z,1007.5
2017-04-28T10:22:12.407Z,1007.47
2017-04-28T10:23:12.389Z,1007.5
2017-04-28T10:24:12.360Z,1007.47
2017-04-28T10:25:12.336Z,1007.51
2017-04-28T10:26:12.315Z,1007.53
2017-04-28T10:27:12.295Z,1007.52
2017-04-28T10:28:12.273Z,1007.58
2017-04-28T10:29:12.248Z,1007.52
2017-04-28T10:30:12.226Z,1007.5
2017-04-28T10:31:12.204Z,1007.54
2017-04-28T10:32:12.184Z,1007.48
2017-04-28T10:33:12.154Z,1007.52
2017-04-28T10:34:12.137Z,1007.53
2017-04-28T10:35:12.112Z,1007.53
2017-04-28T10:36:12.089Z,1007.51
2017-04-28T10:37:12.069Z,1007.52
2017-04-28T10:38:12.046Z,1007.56
2017-04-28T10:39:12.027Z,1007.51
2017-04-28T10:40:12.001Z,1007.54
2017-04-28T10:41:11.984Z,1007.57
2017-04-28T10:42:12.009Z,1007.58
2017-04-28T10:43:11.936Z,1007.55
2017-04-28T10:44:11.912Z,1007.57
2017-04-28T10:45:11.890Z,1007.57
2017-04-28T10:46:11.866Z,1007.54
2017-04-28T10:47:11.926Z,1007.56
2017-04-28T10:48:11.822Z,1007.55
2017-04-28T10:49:11.800Z,1007.52
2017-04-28T10:50:11.776Z,1007.57
2017-04-28T10:51:11.802Z,1007.61
2017-04-28T10:52:11.731Z,1007.54
2017-04-28T10:53:11.709Z,1007.56
2017-04-28T10:54:11.687Z,1007.56
2017-04-28T10:55:11.665Z,1007.52
2017-04-28T10:56:11.642Z,1007.54
2017-04-28T10:57:11.621Z,1007.53
2017-04-28T10:58:11.600Z,1007.5
2017-04-28T10:59:11.577Z,1007.52
2017-04-28T11:00:11.553Z,1007.45
2017-04-28T11:01:11.531Z,1007.48
2017-04-28T11:02:11.506Z,1007.48
2017-04-28T11:03:11.482Z,1007.48
2017-04-28T11:04:11.462Z,1007.48
2017-04-28T11:05:11.439Z,1007.45
2017-04-28T11:06:11.419Z,1007.42
2017-04-28T11:07:11.396Z,1007.43
2017-04-28T11:08:11.373Z,1007.45
2017-04-28T11:09:11.358Z,1007.43
2017-04-28T11:10:11.329Z,1007.4
2017-04-28T11:11:11.308Z,1007.43
2017-04-28T11:12:11.285Z,1007.45
2017-04-28T11:13:11.264Z,1007.48
2017-04-28T11:14:11.342Z,1007.44
2017-04-28T11:15:11.225Z,1007.38
2017-04-28T11:16:11.198Z,1007.39
2017-04-28T11:17:11.177Z,1007.41
2017-04-28T11:18:11.204Z,1007.36
2017-04-28T11:19:11.138Z,1007.34
2017-04-28T11:20:11.141Z,1007.29
2017-04-28T11:21:11.099Z,1007.33
2017-04-28T11:22:11.072Z,1007.3
2017-04-28T11:23:11.041Z,1007.26
2017-04-28T11:24:11.022Z,1007.24
2017-04-28T11:25:10.999Z,1007.23
2017-04-28T11:26:10.982Z,1007.25
2017-04-28T11:27:10.960Z,1007.27
2017-04-28T11:28:10.940Z,1007.27
2017-04-28T11:29:10.916Z,1007.21
2017-04-28T11:30:10.893Z,1007.24
2017-04-28T11:31:10.872Z,1007.18
2017-04-28T11:32:10.857Z,1007.15
2017-04-28T11:33:10.834Z,1007.17
2017-04-28T11:34:10.810Z,1007.1
2017-04-28T11:35:10.796Z,1007.09
2017-04-28T11:36:10.767Z,1007.08
2017-04-28T11:37:10.750Z,1007.07
2017-04-28T11:38:10.728Z,1007.04
2017-04-28T11:39:10.710Z,1007
2017-04-28T11:40:10.691Z,1006.99
2017-04-28T11:41:10.668Z,1006.94
2017-04-28T11:42:10.647Z,1006.94
2017-04-28T11:43:10.628Z,1006.89
2017-04-28T11:44:10.611Z,1006.92
2017-04-28T11:45:10.585Z,1006.94
2017-04-28T11:46:10.564Z,1006.92
2017-04-28T11:47:10.547Z,1006.97
2017-04-28T11:48:10.530Z,1006.92
2017-04-28T11:49:10.507Z,1006.9
2017-04-28T11:50:10.486Z,1006.95
2017-04-28T11:51:10.466Z,1006.95
2017-04-28T11:52:10.450Z,1006.97
2017-04-28T11:53:10.425Z,1006.96
2017-04-28T11:54:10.408Z,1006.99
2017-04-28T11:55:10.389Z,1006.93
2017-04-28T11:56:10.368Z,1006.98
2017-04-28T11:57:10.348Z,1007.01
2017-04-28T11:58:10.379Z,1007.07
2017-04-28T11:59:10.316Z,1007.08
2017-04-28T12:00:10.287Z,1007.05
2017-04-28T12:01:10.266Z,1007.02
2017-04-28T12:02:10.252Z,1007
2017-04-28T12:03:10.278Z,1007.02
2017-04-28T12:04:10.207Z,1007.03
2017-04-28T12:05:10.186Z,1007.07
2017-04-28T12:06:10.166Z,1007.08
2017-04-28T12:07:10.144Z,1007.04
2017-04-28T12:08:10.126Z,1007.05